Ramseur, North Carolina
Current Conditions -  °F | °C
As of 9:15 AM on Monday 26 Jan 2015 (Local Time) from KHBI Reporting Station
Broken Clouds Broken Clouds  
Wind Chill: 40°   Ceiling: 6000
Heat Index: 40°   Visibility: 10mi
Dew Point: 40°   Wind: 0mph
Humidity: 99%   Direction: NA
Pressure: 29.67"   Gusts: NA
Location:  35.73°N, 79.65°W
Report Text: KHBI 261415Z AUTO 00000KT 10SM BKN060 BKN080 BKN110 05/04 A2967 RMK AO2 T00460044
Loading
Personal Weather Stations






























Interactive Weather Map New forecast layout! Learn more

10-Day Weather Forecast

Advertisements
Track Severe Weather on mobile